createdAt,value
2023-01-17T00:00:56.908Z,5.53
2023-01-17T00:03:27.947Z,6.45
2023-01-17T00:06:16.834Z,7.00
2023-01-17T00:09:05.512Z,5.25
2023-01-17T00:11:35.715Z,6.50
2023-01-17T00:14:05.951Z,6.75
2023-01-17T00:16:36.170Z,7.38
2023-01-17T00:19:24.812Z,6.75
2023-01-17T00:22:13.602Z,7.30
2023-01-17T00:25:02.182Z,6.40
2023-01-17T00:27:32.194Z,9.48
2023-01-17T00:30:02.244Z,5.95
2023-01-17T00:32:32.232Z,7.10
2023-01-17T00:35:02.299Z,6.47
2023-01-17T00:37:32.324Z,6.88
2023-01-17T00:40:02.573Z,7.22
2023-01-17T00:42:32.735Z,6.80
2023-01-17T00:45:21.857Z,8.13
2023-01-17T00:48:10.478Z,6.45
2023-01-17T00:50:58.950Z,5.28
2023-01-17T00:53:47.481Z,5.80
2023-01-17T00:56:36.230Z,7.40
2023-01-17T00:59:24.791Z,7.13
2023-01-17T01:02:13.448Z,7.15
2023-01-17T01:05:02.272Z,6.80
2023-01-17T01:07:51.038Z,5.18
2023-01-17T01:10:39.841Z,7.40
2023-01-17T01:13:28.522Z,6.82
2023-01-17T01:16:23.749Z,8.50
2023-01-17T01:19:12.276Z,5.15
2023-01-17T01:22:00.986Z,5.50
2023-01-17T01:24:50.061Z,7.07
2023-01-17T01:27:38.666Z,7.70
2023-01-17T01:30:28.075Z,5.55
2023-01-17T01:33:16.974Z,5.57
2023-01-17T01:35:47.089Z,8.35
2023-01-17T01:38:19.978Z,6.05
2023-01-17T01:40:53.711Z,5.53
2023-01-17T01:43:48.359Z,4.78
2023-01-17T01:46:19.483Z,3.97
2023-01-17T01:48:52.644Z,4.88
2023-01-17T01:51:28.124Z,6.78
2023-01-17T01:54:07.459Z,5.43
2023-01-17T01:56:39.451Z,4.82
2023-01-17T01:59:14.033Z,10.43
2023-01-17T02:01:44.239Z,7.28
2023-01-17T02:04:15.382Z,5.80
2023-01-17T02:06:51.811Z,5.55
2023-01-17T02:09:22.187Z,5.47
2023-01-17T02:11:53.130Z,6.22
2023-01-17T02:14:23.436Z,5.97
2023-01-17T02:17:12.044Z,7.18
2023-01-17T02:20:30.097Z,6.00
2023-01-17T02:23:18.866Z,6.07
2023-01-17T02:26:21.295Z,7.70
2023-01-17T02:29:11.031Z,5.32
2023-01-17T02:31:58.640Z,7.70
2023-01-17T02:34:57.725Z,6.13
2023-01-17T02:37:50.735Z,5.85
2023-01-17T02:40:27.258Z,3.60
2023-01-17T02:43:02.964Z,5.43
2023-01-17T02:45:33.088Z,5.38
2023-01-17T02:48:08.206Z,4.78
2023-01-17T02:50:56.521Z,3.92
2023-01-17T02:53:38.783Z,5.10
2023-01-17T02:56:34.713Z,4.97
2023-01-17T02:59:11.738Z,4.60
2023-01-17T03:02:06.859Z,3.75
2023-01-17T03:04:56.732Z,4.32
2023-01-17T03:07:29.466Z,4.22
2023-01-17T03:10:04.863Z,4.95
2023-01-17T03:12:38.907Z,3.50
2023-01-17T03:15:14.053Z,3.63
2023-01-17T03:17:50.712Z,3.45
2023-01-17T03:20:22.648Z,3.78
2023-01-17T03:22:53.010Z,4.50
2023-01-17T03:25:23.075Z,3.63
2023-01-17T03:27:53.204Z,4.40
2023-01-17T03:30:23.351Z,4.10
2023-01-17T03:32:53.546Z,5.15
2023-01-17T03:35:23.782Z,3.40
2023-01-17T03:37:53.929Z,3.75
2023-01-17T03:40:24.086Z,4.15
2023-01-17T03:42:54.223Z,4.07
2023-01-17T03:45:24.338Z,3.75
2023-01-17T03:47:56.914Z,4.10
2023-01-17T03:50:27.189Z,3.90
2023-01-17T03:52:57.654Z,3.88
2023-01-17T03:55:27.947Z,4.45
2023-01-17T03:57:58.089Z,3.63
2023-01-17T04:00:28.253Z,4.47
2023-01-17T04:02:58.466Z,3.83
2023-01-17T04:05:28.601Z,3.92
2023-01-17T04:07:58.702Z,4.03
2023-01-17T04:10:28.780Z,4.47
2023-01-17T04:12:58.960Z,4.43
2023-01-17T04:15:29.401Z,3.40
2023-01-17T04:17:59.969Z,2.90
2023-01-17T04:20:33.648Z,2.67
2023-01-17T04:23:04.722Z,3.33
2023-01-17T04:25:35.016Z,2.85
2023-01-17T04:28:05.410Z,2.30
2023-01-17T04:30:35.586Z,3.67
2023-01-17T04:33:05.777Z,3.38
2023-01-17T04:35:36.291Z,3.50
2023-01-17T04:38:06.434Z,3.90
2023-01-17T04:40:36.548Z,2.85
2023-01-17T04:43:06.667Z,3.13
2023-01-17T04:45:38.871Z,3.08
2023-01-17T04:48:12.746Z,2.42
2023-01-17T04:50:42.921Z,2.50
2023-01-17T04:53:13.084Z,3.25
2023-01-17T04:55:46.834Z,3.72
2023-01-17T04:58:17.001Z,2.60
2023-01-17T05:00:50.993Z,2.55
2023-01-17T05:03:23.134Z,3.95
2023-01-17T05:05:53.255Z,2.55
2023-01-17T05:08:23.413Z,2.55
2023-01-17T05:10:54.681Z,3.60
2023-01-17T05:13:24.804Z,2.95
2023-01-17T05:15:57.478Z,2.78
2023-01-17T05:18:27.727Z,2.97
2023-01-17T05:21:04.703Z,3.17
2023-01-17T05:23:34.871Z,2.40
2023-01-17T05:26:05.057Z,3.05
2023-01-17T05:28:35.903Z,2.15
2023-01-17T05:31:06.474Z,2.72
2023-01-17T05:33:37.199Z,2.58
2023-01-17T05:36:07.950Z,2.40
2023-01-17T05:38:38.036Z,3.38
2023-01-17T05:41:08.195Z,3.05
2023-01-17T05:43:38.668Z,3.15
2023-01-17T05:46:08.867Z,3.35
2023-01-17T05:48:39.055Z,3.38
2023-01-17T05:51:09.206Z,2.55
2023-01-17T05:53:39.378Z,2.58
2023-01-17T05:56:09.517Z,2.75
2023-01-17T05:58:40.244Z,2.78
2023-01-17T06:01:10.467Z,3.30
2023-01-17T06:03:40.657Z,3.75
2023-01-17T06:06:12.022Z,3.55
2023-01-17T06:08:42.136Z,4.15
2023-01-17T06:11:12.229Z,3.95
2023-01-17T06:13:42.393Z,2.88
2023-01-17T06:16:12.649Z,3.50
2023-01-17T06:18:43.034Z,3.25
2023-01-17T06:21:14.812Z,5.30
2023-01-17T06:23:55.364Z,7.72
2023-01-17T06:26:26.114Z,6.55
2023-01-17T06:28:56.181Z,4.97
2023-01-17T06:31:26.596Z,4.57
2023-01-17T06:33:56.743Z,4.97
2023-01-17T06:36:26.832Z,5.60
2023-01-17T06:38:57.699Z,5.65
2023-01-17T06:41:27.879Z,5.68
2023-01-17T06:43:58.124Z,6.43
2023-01-17T06:46:28.355Z,7.40
2023-01-17T06:48:58.473Z,5.63
2023-01-17T06:51:28.611Z,6.03
2023-01-17T06:53:58.783Z,7.95
2023-01-17T06:56:31.695Z,8.45
2023-01-17T06:59:01.764Z,5.82
2023-01-17T07:01:32.004Z,6.63
2023-01-17T07:04:03.761Z,7.13
2023-01-17T07:06:36.473Z,6.22
2023-01-17T07:09:06.669Z,7.30
2023-01-17T07:11:36.898Z,6.85
2023-01-17T07:14:14.669Z,11.07
2023-01-17T07:16:46.304Z,8.93
2023-01-17T07:19:16.520Z,6.57
2023-01-17T07:21:46.951Z,7.43
2023-01-17T07:24:17.150Z,7.85
2023-01-17T07:26:51.759Z,6.65
2023-01-17T07:29:22.012Z,6.68
2023-01-17T07:31:52.127Z,8.07
2023-01-17T07:34:22.346Z,6.97
2023-01-17T07:36:54.584Z,6.20
2023-01-17T07:39:24.799Z,8.68
2023-01-17T07:41:55.020Z,7.78
2023-01-17T07:44:25.156Z,9.13
2023-01-17T07:46:55.656Z,6.68
2023-01-17T07:49:25.839Z,9.95
2023-01-17T07:51:56.002Z,8.70
2023-01-17T07:54:26.247Z,7.65
2023-01-17T07:56:56.410Z,13.57
2023-01-17T07:59:26.610Z,10.40
2023-01-17T08:01:56.919Z,13.15
2023-01-17T08:04:27.799Z,14.05
2023-01-17T08:07:00.612Z,11.88
2023-01-17T08:09:31.070Z,9.73
2023-01-17T08:12:01.384Z,12.90
2023-01-17T08:14:31.603Z,12.40
2023-01-17T08:17:06.733Z,11.30
2023-01-17T08:19:37.031Z,11.98
2023-01-17T08:22:08.310Z,13.77
2023-01-17T08:24:38.789Z,12.13
2023-01-17T08:27:09.332Z,8.32
2023-01-17T08:29:42.934Z,13.98
2023-01-17T08:32:13.213Z,14.35
2023-01-17T08:34:43.428Z,12.77
2023-01-17T08:37:13.631Z,10.35
2023-01-17T08:39:43.882Z,13.43
2023-01-17T08:42:14.002Z,18.05
2023-01-17T08:44:44.307Z,13.68
2023-01-17T08:47:14.507Z,12.82
2023-01-17T08:49:44.684Z,14.90
2023-01-17T08:52:15.652Z,16.15
2023-01-17T08:54:45.740Z,10.40
2023-01-17T08:57:15.854Z,13.20
2023-01-17T08:59:46.057Z,15.55
2023-01-17T09:02:19.016Z,16.33
2023-01-17T09:04:50.229Z,13.18
2023-01-17T09:07:21.164Z,12.85
2023-01-17T09:09:52.824Z,11.23
2023-01-17T09:12:23.024Z,15.27
2023-01-17T09:14:53.201Z,13.43
2023-01-17T09:17:23.404Z,12.55
2023-01-17T09:19:53.476Z,18.02
2023-01-17T09:22:23.629Z,16.73
2023-01-17T09:24:53.717Z,16.90
2023-01-17T09:27:23.878Z,15.23
2023-01-17T09:29:53.941Z,13.15
2023-01-17T09:32:24.279Z,13.63
2023-01-17T09:34:54.379Z,13.43
2023-01-17T09:37:24.566Z,14.27
2023-01-17T09:39:54.606Z,13.82
2023-01-17T09:42:40.692Z,12.75
2023-01-17T09:45:18.287Z,11.07
2023-01-17T09:47:53.862Z,11.40
2023-01-17T09:50:52.988Z,10.18
2023-01-17T09:53:23.227Z,10.98
2023-01-17T09:56:09.397Z,12.10
2023-01-17T09:59:16.844Z,13.43
2023-01-17T10:01:51.772Z,9.35
2023-01-17T10:04:59.827Z,8.98
2023-01-17T10:08:11.773Z,13.23
2023-01-17T10:11:10.211Z,8.77
2023-01-17T10:13:52.903Z,11.55
2023-01-17T10:16:32.127Z,11.55
2023-01-17T10:19:12.147Z,11.07
2023-01-17T10:22:10.417Z,11.70
2023-01-17T10:25:13.261Z,9.18
2023-01-17T10:28:00.402Z,10.43
2023-01-17T10:30:35.140Z,10.20
2023-01-17T10:33:16.038Z,11.77
2023-01-17T10:36:04.144Z,9.30
2023-01-17T10:38:37.754Z,9.00
2023-01-17T10:41:30.979Z,10.20
2023-01-17T10:44:30.270Z,8.70
2023-01-17T10:47:12.500Z,11.68
2023-01-17T10:49:45.653Z,10.05
2023-01-17T10:52:46.462Z,9.82
2023-01-17T10:55:48.071Z,8.48
2023-01-17T10:58:18.296Z,9.93
2023-01-17T11:01:01.394Z,11.15
2023-01-17T11:03:32.290Z,10.98
2023-01-17T11:06:22.756Z,10.70
2023-01-17T11:08:56.920Z,11.82
2023-01-17T11:11:33.429Z,9.32
2023-01-17T11:14:07.991Z,10.05
2023-01-17T11:16:38.329Z,12.13
2023-01-17T11:19:16.605Z,11.57
2023-01-17T11:21:53.821Z,12.98
2023-01-17T11:24:32.134Z,9.25
2023-01-17T11:27:07.625Z,9.30
2023-01-17T11:29:39.830Z,10.98
2023-01-17T11:32:32.168Z,9.63
2023-01-17T11:35:15.628Z,10.38
2023-01-17T11:38:17.874Z,11.77
2023-01-17T11:40:54.092Z,9.48
2023-01-17T11:43:26.466Z,11.10
2023-01-17T11:46:20.649Z,10.77
2023-01-17T11:48:55.891Z,12.20
2023-01-17T11:51:31.082Z,10.50
2023-01-17T11:54:33.628Z,8.80
2023-01-17T11:57:04.172Z,10.18
2023-01-17T11:59:42.609Z,10.90
2023-01-17T12:03:03.901Z,11.93
2023-01-17T12:05:42.839Z,10.23
2023-01-17T12:08:19.913Z,9.25
2023-01-17T12:11:01.043Z,10.15
2023-01-17T12:14:01.223Z,11.10
2023-01-17T12:16:58.867Z,11.32
2023-01-17T12:19:47.092Z,8.85
2023-01-17T12:22:27.091Z,7.72
2023-01-17T12:25:16.087Z,8.70
2023-01-17T12:27:56.614Z,7.60
2023-01-17T12:30:47.678Z,8.13
2023-01-17T12:33:39.565Z,8.02
2023-01-17T12:36:19.442Z,8.07
2023-01-17T12:38:49.678Z,7.18
2023-01-17T12:41:26.586Z,8.23
2023-01-17T12:43:59.983Z,8.13
2023-01-17T12:46:49.234Z,11.70
2023-01-17T12:49:45.974Z,11.15
2023-01-17T12:52:48.629Z,8.10
2023-01-17T12:55:35.796Z,7.68
2023-01-17T12:58:12.330Z,7.28
2023-01-17T13:00:45.538Z,8.43
2023-01-17T13:03:31.788Z,8.43
2023-01-17T13:06:03.465Z,6.80
2023-01-17T13:08:42.766Z,10.15
2023-01-17T13:11:15.912Z,8.50
2023-01-17T13:13:47.458Z,8.40
2023-01-17T13:16:21.611Z,7.65
2023-01-17T13:18:52.601Z,6.97
2023-01-17T13:21:33.048Z,11.00
2023-01-17T13:24:09.215Z,9.27
2023-01-17T13:26:57.881Z,10.63
2023-01-17T13:29:58.957Z,8.55
2023-01-17T13:32:47.134Z,5.80
2023-01-17T13:35:44.992Z,9.55
2023-01-17T13:38:41.003Z,7.53
2023-01-17T13:41:28.803Z,6.95
2023-01-17T13:44:19.104Z,13.35
2023-01-17T13:46:54.932Z,10.32
2023-01-17T13:49:34.376Z,8.20
2023-01-17T13:52:19.431Z,6.45
2023-01-17T13:54:54.797Z,6.03
2023-01-17T13:57:33.018Z,6.13
2023-01-17T14:00:24.413Z,9.85
2023-01-17T14:02:55.593Z,7.68
2023-01-17T14:05:51.176Z,9.48
2023-01-17T14:08:22.140Z,7.50
2023-01-17T14:11:08.446Z,9.60
2023-01-17T14:13:40.293Z,8.95
2023-01-17T14:16:22.492Z,9.00
2023-01-17T14:18:54.110Z,7.70
2023-01-17T14:21:27.613Z,9.52
2023-01-17T14:24:13.269Z,6.90
2023-01-17T14:26:51.797Z,8.50
2023-01-17T14:29:46.565Z,9.38
2023-01-17T14:32:20.344Z,7.40
2023-01-17T14:34:52.383Z,8.70
2023-01-17T14:37:29.561Z,8.55
2023-01-17T14:40:00.866Z,7.85
2023-01-17T14:42:33.285Z,7.95
2023-01-17T14:45:09.139Z,7.88
2023-01-17T14:47:46.037Z,7.05
2023-01-17T14:50:23.084Z,6.45
2023-01-17T14:55:47.732Z,9.00
2023-01-17T14:58:18.055Z,9.60
2023-01-17T15:00:50.266Z,8.68
2023-01-17T15:03:20.781Z,7.93
2023-01-17T15:05:53.612Z,7.32
2023-01-17T15:08:30.905Z,10.68
2023-01-17T15:11:09.652Z,9.80
2023-01-17T15:13:45.312Z,12.77
2023-01-17T15:16:26.078Z,10.77
2023-01-17T15:18:57.526Z,9.00
2023-01-17T15:21:32.221Z,9.07
2023-01-17T15:24:08.493Z,7.55
2023-01-17T15:26:45.208Z,9.32
2023-01-17T15:29:33.561Z,6.95
2023-01-17T15:32:08.005Z,6.45
2023-01-17T15:34:44.301Z,8.43
2023-01-17T15:37:30.017Z,6.88
2023-01-17T15:40:18.836Z,7.68
2023-01-17T15:42:59.030Z,9.20
2023-01-17T15:45:31.503Z,6.35
2023-01-17T15:48:39.539Z,6.55
2023-01-17T15:51:12.095Z,9.15
2023-01-17T15:53:42.941Z,9.35
2023-01-17T15:56:31.918Z,6.28
2023-01-17T15:59:22.777Z,7.45
2023-01-17T16:01:57.383Z,6.13
2023-01-17T16:04:38.017Z,7.45
2023-01-17T16:07:20.685Z,6.30
2023-01-17T16:09:51.074Z,6.57
2023-01-17T16:12:21.463Z,6.30
2023-01-17T16:15:10.871Z,10.73
2023-01-17T16:17:46.897Z,13.30
2023-01-17T16:20:43.381Z,9.35
2023-01-17T16:23:13.952Z,9.80
2023-01-17T16:25:44.825Z,7.15
2023-01-17T16:28:15.384Z,7.15
2023-01-17T16:30:48.737Z,7.20
2023-01-17T16:33:19.147Z,7.00
2023-01-17T16:35:51.435Z,7.82
2023-01-17T16:38:22.080Z,7.95
2023-01-17T16:40:54.800Z,9.10
2023-01-17T16:43:25.172Z,6.07
2023-01-17T16:45:56.142Z,7.82
2023-01-17T16:48:26.402Z,6.85
2023-01-17T16:50:56.579Z,7.70
2023-01-17T16:53:28.727Z,7.13
2023-01-17T16:56:19.180Z,8.88
2023-01-17T16:58:56.903Z,8.77
2023-01-17T17:01:36.884Z,7.10
2023-01-17T17:06:47.681Z,5.80
2023-01-17T17:09:18.770Z,5.63
2023-01-17T17:11:48.839Z,5.80
2023-01-17T17:14:19.021Z,9.45
2023-01-17T17:16:52.065Z,7.90
2023-01-17T17:19:22.954Z,6.97
2023-01-17T17:21:53.186Z,9.07
2023-01-17T17:24:23.488Z,9.25
2023-01-17T17:26:53.570Z,9.98
2023-01-17T17:29:23.745Z,9.80
2023-01-17T17:31:54.132Z,6.45
2023-01-17T17:34:26.526Z,4.75
2023-01-17T17:36:56.651Z,7.07
2023-01-17T17:39:26.862Z,4.07
2023-01-17T17:42:00.178Z,3.60
2023-01-17T17:44:30.630Z,9.45
2023-01-17T17:47:01.159Z,27.00
2023-01-17T17:49:31.557Z,10.23
2023-01-17T17:52:08.846Z,7.72
2023-01-17T17:54:39.170Z,4.32
2023-01-17T17:57:09.961Z,4.25
2023-01-17T17:59:40.212Z,3.47
2023-01-17T18:02:11.430Z,5.95
2023-01-17T18:04:41.724Z,5.50
2023-01-17T18:18:02.089Z,3.88
2023-01-17T18:20:32.590Z,4.05
2023-01-17T18:23:02.772Z,4.32
2023-01-17T18:25:36.438Z,6.95
2023-01-17T18:28:06.667Z,7.22
2023-01-17T18:30:38.679Z,6.70
2023-01-17T18:33:19.040Z,7.15
2023-01-17T18:35:57.870Z,6.97
2023-01-17T18:38:45.257Z,6.93
2023-01-17T18:41:21.303Z,7.82
2023-01-17T18:44:05.695Z,6.20
2023-01-17T18:46:37.126Z,6.88
2023-01-17T18:49:07.733Z,8.77
2023-01-17T18:51:38.044Z,7.30
2023-01-17T18:54:09.080Z,7.53
2023-01-17T18:57:02.481Z,6.97
2023-01-17T18:59:32.610Z,5.80
2023-01-17T19:02:05.842Z,5.82
2023-01-17T19:04:38.036Z,5.65
2023-01-17T19:07:12.570Z,6.57
2023-01-17T19:09:49.891Z,5.43
2023-01-17T19:12:21.085Z,4.18
2023-01-17T19:14:53.019Z,2.53
2023-01-17T19:17:23.273Z,2.50
2023-01-17T19:19:54.161Z,3.28
2023-01-17T19:22:25.027Z,5.32
2023-01-17T19:24:55.338Z,3.13
2023-01-17T19:27:26.249Z,2.75
2023-01-17T19:29:56.382Z,2.60
2023-01-17T19:32:26.462Z,3.03
2023-01-17T19:34:57.067Z,2.80
2023-01-17T19:37:28.192Z,3.67
2023-01-17T19:39:58.399Z,4.07
2023-01-17T19:42:28.897Z,4.20
2023-01-17T19:45:03.296Z,3.67
2023-01-17T19:47:38.309Z,4.60
2023-01-17T19:50:09.891Z,5.88
2023-01-17T19:52:40.089Z,4.15
2023-01-17T19:55:10.370Z,5.47
2023-01-17T19:57:40.671Z,4.32
2023-01-17T20:00:13.308Z,4.05
2023-01-17T20:02:43.535Z,5.47
2023-01-17T20:05:13.647Z,3.80
2023-01-17T20:07:43.886Z,5.25
2023-01-17T20:10:14.094Z,7.38
2023-01-17T20:12:44.308Z,10.13
2023-01-17T20:15:14.473Z,9.48
2023-01-17T20:17:44.726Z,15.13
2023-01-17T20:20:15.925Z,12.57
2023-01-17T20:22:46.485Z,10.05
2023-01-17T20:25:16.730Z,7.20
2023-01-17T20:27:46.877Z,9.13
2023-01-17T20:30:24.651Z,11.65
2023-01-17T20:32:55.766Z,10.70
2023-01-17T20:35:26.122Z,14.60
2023-01-17T20:37:56.483Z,9.75
2023-01-17T20:40:29.724Z,8.50
2023-01-17T20:43:05.244Z,12.90
2023-01-17T20:45:41.157Z,10.77
2023-01-17T20:48:14.275Z,9.32
2023-01-17T20:51:13.550Z,9.75
2023-01-17T20:53:48.290Z,7.30
2023-01-17T20:56:42.676Z,13.93
2023-01-17T20:59:15.921Z,13.25
2023-01-17T21:01:46.561Z,9.43
2023-01-17T21:04:18.173Z,12.20
2023-01-17T21:06:51.757Z,12.20
2023-01-17T21:09:31.699Z,10.82
2023-01-17T21:12:04.957Z,14.25
2023-01-17T21:14:41.730Z,9.68
2023-01-17T21:17:11.898Z,10.88
2023-01-17T21:19:43.117Z,9.63
2023-01-17T21:22:16.762Z,10.50
2023-01-17T21:24:46.984Z,6.93
2023-01-17T21:27:17.216Z,9.05
2023-01-17T21:29:47.504Z,7.95
2023-01-17T21:32:34.708Z,7.95
2023-01-17T21:35:08.012Z,12.57
2023-01-17T21:37:45.087Z,9.02
2023-01-17T21:43:00.239Z,8.77
2023-01-17T21:49:21.625Z,6.85
2023-01-17T21:52:16.088Z,8.38
2023-01-17T21:55:10.714Z,12.48
2023-01-17T21:57:59.644Z,16.27
2023-01-17T22:00:29.978Z,10.23
2023-01-17T22:03:00.254Z,12.43
2023-01-17T22:05:30.461Z,14.93
2023-01-17T22:08:12.885Z,18.75
2023-01-17T22:10:45.898Z,11.05
2023-01-17T22:13:18.428Z,18.55
2023-01-17T22:15:58.739Z,16.08
2023-01-17T22:18:29.889Z,11.27
2023-01-17T22:21:04.551Z,10.10
2023-01-17T22:23:35.489Z,10.07
2023-01-17T22:26:07.709Z,10.77
2023-01-17T22:28:39.690Z,14.27
2023-01-17T22:31:14.517Z,10.25
2023-01-17T22:33:46.737Z,9.77
2023-01-17T22:36:16.988Z,8.32
2023-01-17T22:38:47.492Z,13.93
2023-01-17T22:41:23.287Z,11.98
2023-01-17T22:44:02.592Z,13.50
2023-01-17T22:46:35.743Z,11.13
2023-01-17T22:49:08.688Z,10.45
2023-01-17T22:51:42.915Z,10.20
2023-01-17T22:54:13.077Z,8.13
2023-01-17T22:56:43.237Z,8.60
2023-01-17T22:59:13.673Z,7.38
2023-01-17T23:01:43.887Z,7.55
2023-01-17T23:04:16.208Z,8.43
2023-01-17T23:06:46.348Z,8.07
2023-01-17T23:09:17.459Z,9.25
2023-01-17T23:11:52.744Z,12.77
2023-01-17T23:14:54.019Z,15.27
2023-01-17T23:17:43.088Z,15.90
2023-01-17T23:20:14.204Z,20.20
2023-01-17T23:22:44.613Z,18.05
2023-01-17T23:25:14.793Z,14.75
2023-01-17T23:28:05.984Z,11.02
2023-01-17T23:30:40.390Z,9.43
2023-01-17T23:33:13.417Z,8.95
2023-01-17T23:35:45.715Z,10.90
2023-01-17T23:38:28.736Z,9.07
2023-01-17T23:41:25.457Z,8.98
2023-01-17T23:46:27.604Z,7.68
2023-01-17T23:48:57.788Z,19.05
2023-01-17T23:51:29.932Z,14.48
2023-01-17T23:54:05.528Z,11.57
2023-01-17T23:56:35.870Z,11.05
2023-01-17T23:59:06.341Z,9.27
